03:43
Airports
History
Links
Donate
Help keep this website running!
PayPal
Bitcoin
Information on this page is community maintained and may be outdated or inaccurate and is intended for reference only or PC simulator navigating.
Always use approved charts for navigating.
U40
Albion Municipal
Albion Municipal (U40)
Albion, Idaho, United States (83311)
4
Lat/Lng:42° 23' 51.68" N / 113° 33' 27.03" W
42.397689 / -113.557507
Elevation:4777'ft 1456mMSL
ID / ICAO:U40
Runways:1
Longest:(07-25) 1,367.9m 4,488ft Grass
Distance To
Airport ID:
Nearby VORs <50NM
Nearby NDBs
Nearby WeatherUpdated 06-26-17 02:53 GMT
Nearby weather at KBYI, Burley Muni located 14.8 nautical miles from U40
Altimeter: 30.07
Visibility: 10.0 statute miles
Wind: 6 knots (070°)
Temp: 26°c 79°f
Humidity: 24.2%

METAR: KBYI 260253Z AUTO 07006KT 10SM CLR 26/04 A3007 RMK AO2 SLP139 T02610044 55006

(Powered by phpweather)
Runway 07 / 25
Dimensions:1367.9 x 53.3m 4488' x 175'ft
Surface:Grass
Runway 07 [A]Runway 25 [B]
Heading:085°TH 265°TH
Lat:
Lng:
42° 23' 50.13"N
113° 33' 57.04"W
42° 23' 53.23"N
113° 32' 57.01"W
User Notes and Comments
Google Map
Nearby Airports
(U) Burley Muni 14.8 NM
KBYI (WX) NW 312°
4 Interstate 15.3 NM
0U5 ESE 122°
4 Oakley Muni 19.9 NM
1U6 SW 235°
4 Hazelton Muni 32.0 NM
U94 WNW 292°
4 Bear Trap 41.3 NM
1U0 NNE 14°
4 Laidlaw Corrals 45.1 NM
U99 NNW 348°
(U) American Falls 46.4 NM
U01 NE 53°
VFR Chart
Flight Planning at SkyVector.com